sensor_id;sensor_type;location;lat;lon;timestamp;temperature;humidity
1650;DHT22;822;53.670;8.676;2022-12-24T00:01:30;19.40;49.80
1650;DHT22;822;53.670;8.676;2022-12-24T00:03:57;19.40;49.80
1650;DHT22;822;53.670;8.676;2022-12-24T00:06:24;19.40;49.90
1650;DHT22;822;53.670;8.676;2022-12-24T00:08:51;19.40;49.90
1650;DHT22;822;53.670;8.676;2022-12-24T00:11:20;19.40;49.90
1650;DHT22;822;53.670;8.676;2022-12-24T00:13:47;19.40;50.00
1650;DHT22;822;53.670;8.676;2022-12-24T00:16:14;19.40;50.60
1650;DHT22;822;53.670;8.676;2022-12-24T00:18:40;19.30;50.00
1650;DHT22;822;53.670;8.676;2022-12-24T00:21:15;19.30;50.00
1650;DHT22;822;53.670;8.676;2022-12-24T00:23:42;19.30;50.00
1650;DHT22;822;53.670;8.676;2022-12-24T00:26:09;19.30;50.10
1650;DHT22;822;53.670;8.676;2022-12-24T00:28:37;19.20;50.00
1650;DHT22;822;53.670;8.676;2022-12-24T00:31:09;19.20;50.10
1650;DHT22;822;53.670;8.676;2022-12-24T00:33:35;19.20;50.10
1650;DHT22;822;53.670;8.676;2022-12-24T00:36:02;19.20;50.10
1650;DHT22;822;53.670;8.676;2022-12-24T00:38:29;19.20;50.10
1650;DHT22;822;53.670;8.676;2022-12-24T00:40:58;19.20;50.20
1650;DHT22;822;53.670;8.676;2022-12-24T00:43:25;19.20;50.20
1650;DHT22;822;53.670;8.676;2022-12-24T00:45:53;19.10;50.20
1650;DHT22;822;53.670;8.676;2022-12-24T00:48:20;19.10;50.20
1650;DHT22;822;53.670;8.676;2022-12-24T00:50:48;19.10;50.30
1650;DHT22;822;53.670;8.676;2022-12-24T00:53:15;19.10;50.30
1650;DHT22;822;53.670;8.676;2022-12-24T00:55:42;19.00;50.20
1650;DHT22;822;53.670;8.676;2022-12-24T00:58:09;19.00;50.20
1650;DHT22;822;53.670;8.676;2022-12-24T01:00:36;19.00;50.30
1650;DHT22;822;53.670;8.676;2022-12-24T01:03:04;19.00;50.30
1650;DHT22;822;53.670;8.676;2022-12-24T01:05:31;19.00;51.00
1650;DHT22;822;53.670;8.676;2022-12-24T01:07:57;18.90;50.30
1650;DHT22;822;53.670;8.676;2022-12-24T01:10:24;18.90;50.30
1650;DHT22;822;53.670;8.676;2022-12-24T01:12:50;18.90;50.30
1650;DHT22;822;53.670;8.676;2022-12-24T01:15:18;18.90;50.30
1650;DHT22;822;53.670;8.676;2022-12-24T01:17:44;18.90;50.30
1650;DHT22;822;53.670;8.676;2022-12-24T01:20:15;18.90;50.30
1650;DHT22;822;53.670;8.676;2022-12-24T01:22:42;18.90;50.30
1650;DHT22;822;53.670;8.676;2022-12-24T01:25:09;18.80;50.40
1650;DHT22;822;53.670;8.676;2022-12-24T01:27:36;18.90;50.40
1650;DHT22;822;53.670;8.676;2022-12-24T01:30:04;18.80;50.40
1650;DHT22;822;53.670;8.676;2022-12-24T01:32:31;18.80;50.40
1650;DHT22;822;53.670;8.676;2022-12-24T01:34:57;18.80;50.50
1650;DHT22;822;53.670;8.676;2022-12-24T01:37:26;18.80;50.40
1650;DHT22;822;53.670;8.676;2022-12-24T01:39:53;18.80;50.50
1650;DHT22;822;53.670;8.676;2022-12-24T01:42:44;18.80;50.70
1650;DHT22;822;53.670;8.676;2022-12-24T01:45:50;18.80;50.50
1650;DHT22;822;53.670;8.676;2022-12-24T01:48:35;18.80;50.50
1650;DHT22;822;53.670;8.676;2022-12-24T01:51:14;18.70;50.40
1650;DHT22;822;53.670;8.676;2022-12-24T01:53:47;18.80;50.50
1650;DHT22;822;53.670;8.676;2022-12-24T01:56:15;18.70;50.40
1650;DHT22;822;53.670;8.676;2022-12-24T01:58:47;18.70;50.70
1650;DHT22;822;53.670;8.676;2022-12-24T02:01:17;18.70;50.50
1650;DHT22;822;53.670;8.676;2022-12-24T02:03:44;18.70;50.50
1650;DHT22;822;53.670;8.676;2022-12-24T02:06:12;18.70;50.50
1650;DHT22;822;53.670;8.676;2022-12-24T02:08:41;18.60;50.50
1650;DHT22;822;53.670;8.676;2022-12-24T02:11:11;18.60;50.40
1650;DHT22;822;53.670;8.676;2022-12-24T02:13:38;18.60;50.40
1650;DHT22;822;53.670;8.676;2022-12-24T02:16:13;18.60;50.50
1650;DHT22;822;53.670;8.676;2022-12-24T02:18:46;18.60;50.50
1650;DHT22;822;53.670;8.676;2022-12-24T02:25:01;18.60;50.50
1650;DHT22;822;53.670;8.676;2022-12-24T02:27:44;18.60;50.50
1650;DHT22;822;53.670;8.676;2022-12-24T02:30:20;18.60;50.40
1650;DHT22;822;53.670;8.676;2022-12-24T02:33:12;18.60;50.50
1650;DHT22;822;53.670;8.676;2022-12-24T02:35:46;18.60;50.50
1650;DHT22;822;53.670;8.676;2022-12-24T02:38:18;18.60;50.40
1650;DHT22;822;53.670;8.676;2022-12-24T02:40:50;18.50;50.40
1650;DHT22;822;53.670;8.676;2022-12-24T02:43:20;18.50;50.40
1650;DHT22;822;53.670;8.676;2022-12-24T02:45:53;18.50;50.50
1650;DHT22;822;53.670;8.676;2022-12-24T02:48:21;18.50;50.50
1650;DHT22;822;53.670;8.676;2022-12-24T02:50:59;18.50;50.50
1650;DHT22;822;53.670;8.676;2022-12-24T02:53:27;18.50;50.40
1650;DHT22;822;53.670;8.676;2022-12-24T02:59:22;18.50;50.30
1650;DHT22;822;53.670;8.676;2022-12-24T03:02:00;18.60;50.30
1650;DHT22;822;53.670;8.676;2022-12-24T03:04:32;18.60;50.20
1650;DHT22;822;53.670;8.676;2022-12-24T03:07:14;18.60;50.30
1650;DHT22;822;53.670;8.676;2022-12-24T03:10:01;18.60;50.30
1650;DHT22;822;53.670;8.676;2022-12-24T03:12:33;18.60;50.30
1650;DHT22;822;53.670;8.676;2022-12-24T03:15:04;18.60;50.20
1650;DHT22;822;53.670;8.676;2022-12-24T03:17:37;18.60;50.20
1650;DHT22;822;53.670;8.676;2022-12-24T03:20:07;18.60;50.20
1650;DHT22;822;53.670;8.676;2022-12-24T03:22:35;18.60;50.10
1650;DHT22;822;53.670;8.676;2022-12-24T03:25:03;18.60;50.10
1650;DHT22;822;53.670;8.676;2022-12-24T03:27:31;18.60;50.10
1650;DHT22;822;53.670;8.676;2022-12-24T03:29:58;18.70;50.20
1650;DHT22;822;53.670;8.676;2022-12-24T03:32:28;18.70;50.20
1650;DHT22;822;53.670;8.676;2022-12-24T03:34:56;18.70;50.10
1650;DHT22;822;53.670;8.676;2022-12-24T03:37:23;18.70;50.10
1650;DHT22;822;53.670;8.676;2022-12-24T03:39:51;18.70;50.10
1650;DHT22;822;53.670;8.676;2022-12-24T03:42:18;18.70;50.10
1650;DHT22;822;53.670;8.676;2022-12-24T03:44:45;18.70;50.10
1650;DHT22;822;53.670;8.676;2022-12-24T03:47:12;18.70;50.10
1650;DHT22;822;53.670;8.676;2022-12-24T03:49:38;18.70;50.10
1650;DHT22;822;53.670;8.676;2022-12-24T03:52:07;18.70;50.10
1650;DHT22;822;53.670;8.676;2022-12-24T03:54:33;18.60;50.00
1650;DHT22;822;53.670;8.676;2022-12-24T03:57:00;18.60;50.00
1650;DHT22;822;53.670;8.676;2022-12-24T03:59:27;18.60;50.00
1650;DHT22;822;53.670;8.676;2022-12-24T04:01:54;18.60;50.00
1650;DHT22;822;53.670;8.676;2022-12-24T04:04:21;18.60;50.00
1650;DHT22;822;53.670;8.676;2022-12-24T04:06:47;18.60;50.00
1650;DHT22;822;53.670;8.676;2022-12-24T04:09:16;18.60;50.00
1650;DHT22;822;53.670;8.676;2022-12-24T04:11:42;18.60;50.00
1650;DHT22;822;53.670;8.676;2022-12-24T04:14:09;18.60;50.10
1650;DHT22;822;53.670;8.676;2022-12-24T04:16:36;18.60;50.10
1650;DHT22;822;53.670;8.676;2022-12-24T04:19:03;18.60;50.00
1650;DHT22;822;53.670;8.676;2022-12-24T04:21:30;18.60;50.10
1650;DHT22;822;53.670;8.676;2022-12-24T04:23:56;18.60;50.10
1650;DHT22;822;53.670;8.676;2022-12-24T04:26:25;18.60;50.10
1650;DHT22;822;53.670;8.676;2022-12-24T04:28:52;18.60;50.00
1650;DHT22;822;53.670;8.676;2022-12-24T04:31:19;18.50;50.00
1650;DHT22;822;53.670;8.676;2022-12-24T04:33:45;18.50;50.00
1650;DHT22;822;53.670;8.676;2022-12-24T04:36:14;18.50;50.00
1650;DHT22;822;53.670;8.676;2022-12-24T04:38:42;18.50;50.00
1650;DHT22;822;53.670;8.676;2022-12-24T04:41:11;18.50;50.00
1650;DHT22;822;53.670;8.676;2022-12-24T04:43:40;18.50;49.90
1650;DHT22;822;53.670;8.676;2022-12-24T04:46:08;18.50;50.00
1650;DHT22;822;53.670;8.676;2022-12-24T04:48:36;18.40;50.00
1650;DHT22;822;53.670;8.676;2022-12-24T04:51:04;18.40;50.00
1650;DHT22;822;53.670;8.676;2022-12-24T04:53:32;18.40;50.00
1650;DHT22;822;53.670;8.676;2022-12-24T04:55:59;18.40;50.00
1650;DHT22;822;53.670;8.676;2022-12-24T04:58:26;18.40;50.00
1650;DHT22;822;53.670;8.676;2022-12-24T05:00:55;18.40;50.00
1650;DHT22;822;53.670;8.676;2022-12-24T05:03:22;18.40;50.00
1650;DHT22;822;53.670;8.676;2022-12-24T05:05:49;18.40;50.00
1650;DHT22;822;53.670;8.676;2022-12-24T05:08:15;18.40;50.00
1650;DHT22;822;53.670;8.676;2022-12-24T05:10:42;18.40;50.00
1650;DHT22;822;53.670;8.676;2022-12-24T05:13:09;18.40;50.00
1650;DHT22;822;53.670;8.676;2022-12-24T05:15:36;18.30;50.00
1650;DHT22;822;53.670;8.676;2022-12-24T05:18:04;18.30;50.10
1650;DHT22;822;53.670;8.676;2022-12-24T05:20:31;18.20;50.10
1650;DHT22;822;53.670;8.676;2022-12-24T05:22:58;18.30;50.20
1650;DHT22;822;53.670;8.676;2022-12-24T05:25:42;18.30;50.20
1650;DHT22;822;53.670;8.676;2022-12-24T05:28:27;18.30;50.20
1650;DHT22;822;53.670;8.676;2022-12-24T05:30:54;18.30;50.20
1650;DHT22;822;53.670;8.676;2022-12-24T05:33:22;18.30;50.20
1650;DHT22;822;53.670;8.676;2022-12-24T05:35:50;18.30;50.10
1650;DHT22;822;53.670;8.676;2022-12-24T05:38:17;18.30;50.20
1650;DHT22;822;53.670;8.676;2022-12-24T05:40:45;18.30;50.10
1650;DHT22;822;53.670;8.676;2022-12-24T05:43:12;18.30;50.10
1650;DHT22;822;53.670;8.676;2022-12-24T05:45:38;18.30;50.00
1650;DHT22;822;53.670;8.676;2022-12-24T05:48:05;18.30;50.00
1650;DHT22;822;53.670;8.676;2022-12-24T05:50:35;18.30;50.00
1650;DHT22;822;53.670;8.676;2022-12-24T05:53:02;18.30;50.00
1650;DHT22;822;53.670;8.676;2022-12-24T05:55:28;18.30;49.90
1650;DHT22;822;53.670;8.676;2022-12-24T05:57:55;18.30;49.90
1650;DHT22;822;53.670;8.676;2022-12-24T06:00:22;18.30;49.90
1650;DHT22;822;53.670;8.676;2022-12-24T06:02:49;18.30;49.90
1650;DHT22;822;53.670;8.676;2022-12-24T06:05:16;18.30;49.90
1650;DHT22;822;53.670;8.676;2022-12-24T06:07:44;18.30;49.80
1650;DHT22;822;53.670;8.676;2022-12-24T06:10:11;18.30;49.90
1650;DHT22;822;53.670;8.676;2022-12-24T06:12:38;18.30;49.80
1650;DHT22;822;53.670;8.676;2022-12-24T06:15:06;18.30;49.80
1650;DHT22;822;53.670;8.676;2022-12-24T06:17:33;18.30;49.80
1650;DHT22;822;53.670;8.676;2022-12-24T06:19:59;18.30;49.80
1650;DHT22;822;53.670;8.676;2022-12-24T06:22:26;18.30;49.80
1650;DHT22;822;53.670;8.676;2022-12-24T06:24:55;18.30;49.80
1650;DHT22;822;53.670;8.676;2022-12-24T06:27:21;18.30;49.80
1650;DHT22;822;53.670;8.676;2022-12-24T06:29:48;18.30;49.80
1650;DHT22;822;53.670;8.676;2022-12-24T06:32:15;18.30;49.80
1650;DHT22;822;53.670;8.676;2022-12-24T06:34:42;18.30;49.70
1650;DHT22;822;53.670;8.676;2022-12-24T06:37:09;18.30;49.70
1650;DHT22;822;53.670;8.676;2022-12-24T06:39:43;18.40;49.70
1650;DHT22;822;53.670;8.676;2022-12-24T06:42:11;18.30;49.70
1650;DHT22;822;53.670;8.676;2022-12-24T06:44:38;18.40;49.70
1650;DHT22;822;53.670;8.676;2022-12-24T06:47:04;18.40;49.70
1650;DHT22;822;53.670;8.676;2022-12-24T06:49:31;18.30;49.60
1650;DHT22;822;53.670;8.676;2022-12-24T06:51:58;18.30;49.60
1650;DHT22;822;53.670;8.676;2022-12-24T06:54:25;18.40;49.70
1650;DHT22;822;53.670;8.676;2022-12-24T06:56:52;18.40;49.70
1650;DHT22;822;53.670;8.676;2022-12-24T06:59:20;18.30;49.60
1650;DHT22;822;53.670;8.676;2022-12-24T07:01:47;18.40;50.10
1650;DHT22;822;53.670;8.676;2022-12-24T07:04:14;18.60;50.30
1650;DHT22;822;53.670;8.676;2022-12-24T07:06:41;18.70;50.30
1650;DHT22;822;53.670;8.676;2022-12-24T07:09:10;18.70;50.50
1650;DHT22;822;53.670;8.676;2022-12-24T07:11:38;18.70;50.80
1650;DHT22;822;53.670;8.676;2022-12-24T07:14:05;18.60;50.90
1650;DHT22;822;53.670;8.676;2022-12-24T07:16:33;18.50;50.80
1650;DHT22;822;53.670;8.676;2022-12-24T07:19:00;18.50;50.70
1650;DHT22;822;53.670;8.676;2022-12-24T07:21:27;18.40;50.60
1650;DHT22;822;53.670;8.676;2022-12-24T07:23:53;18.40;50.60
1650;DHT22;822;53.670;8.676;2022-12-24T07:26:20;18.40;50.50
1650;DHT22;822;53.670;8.676;2022-12-24T07:28:47;18.40;50.50
1650;DHT22;822;53.670;8.676;2022-12-24T07:31:14;18.40;50.50
1650;DHT22;822;53.670;8.676;2022-12-24T07:33:42;18.40;50.40
1650;DHT22;822;53.670;8.676;2022-12-24T07:36:14;18.30;50.30
1650;DHT22;822;53.670;8.676;2022-12-24T07:38:42;18.30;50.30
1650;DHT22;822;53.670;8.676;2022-12-24T07:41:09;18.30;50.20
1650;DHT22;822;53.670;8.676;2022-12-24T07:43:36;18.30;50.20
1650;DHT22;822;53.670;8.676;2022-12-24T07:46:03;18.30;50.10
1650;DHT22;822;53.670;8.676;2022-12-24T07:48:31;18.30;50.10
1650;DHT22;822;53.670;8.676;2022-12-24T07:50:59;18.30;50.20
1650;DHT22;822;53.670;8.676;2022-12-24T07:53:27;18.20;50.10
1650;DHT22;822;53.670;8.676;2022-12-24T07:55:54;18.30;50.30
1650;DHT22;822;53.670;8.676;2022-12-24T07:58:22;18.30;50.50
1650;DHT22;822;53.670;8.676;2022-12-24T08:00:54;18.30;50.50
1650;DHT22;822;53.670;8.676;2022-12-24T08:03:21;18.30;50.70
1650;DHT22;822;53.670;8.676;2022-12-24T08:05:48;18.20;50.80
1650;DHT22;822;53.670;8.676;2022-12-24T08:08:18;18.30;50.80
1650;DHT22;822;53.670;8.676;2022-12-24T08:10:45;18.20;50.70
1650;DHT22;822;53.670;8.676;2022-12-24T08:13:13;18.20;50.50
1650;DHT22;822;53.670;8.676;2022-12-24T08:15:40;18.20;50.60
1650;DHT22;822;53.670;8.676;2022-12-24T08:18:07;18.20;50.70
1650;DHT22;822;53.670;8.676;2022-12-24T08:20:35;18.10;50.70
1650;DHT22;822;53.670;8.676;2022-12-24T08:23:02;18.10;50.80
1650;DHT22;822;53.670;8.676;2022-12-24T08:25:30;18.10;50.80
1650;DHT22;822;53.670;8.676;2022-12-24T08:27:57;18.10;50.80
1650;DHT22;822;53.670;8.676;2022-12-24T08:30:24;18.10;50.90
1650;DHT22;822;53.670;8.676;2022-12-24T08:32:51;18.10;50.80
1650;DHT22;822;53.670;8.676;2022-12-24T08:35:19;18.10;50.90
1650;DHT22;822;53.670;8.676;2022-12-24T08:37:46;18.10;50.90
1650;DHT22;822;53.670;8.676;2022-12-24T08:40:12;18.10;50.80
1650;DHT22;822;53.670;8.676;2022-12-24T08:42:41;18.10;50.80
1650;DHT22;822;53.670;8.676;2022-12-24T08:45:08;18.10;50.60
1650;DHT22;822;53.670;8.676;2022-12-24T08:47:36;18.20;50.60
1650;DHT22;822;53.670;8.676;2022-12-24T08:50:03;18.20;50.40
1650;DHT22;822;53.670;8.676;2022-12-24T08:52:30;18.20;50.20
1650;DHT22;822;53.670;8.676;2022-12-24T08:54:57;18.20;49.90
1650;DHT22;822;53.670;8.676;2022-12-24T08:57:24;18.20;49.80
1650;DHT22;822;53.670;8.676;2022-12-24T08:59:53;18.20;49.80
1650;DHT22;822;53.670;8.676;2022-12-24T09:02:20;18.30;49.90
1650;DHT22;822;53.670;8.676;2022-12-24T09:04:47;18.30;49.90
1650;DHT22;822;53.670;8.676;2022-12-24T09:07:14;18.30;49.80
1650;DHT22;822;53.670;8.676;2022-12-24T09:09:41;18.30;49.80
1650;DHT22;822;53.670;8.676;2022-12-24T09:12:08;18.30;49.80
1650;DHT22;822;53.670;8.676;2022-12-24T09:14:35;18.30;49.70
1650;DHT22;822;53.670;8.676;2022-12-24T09:17:03;18.30;49.70
1650;DHT22;822;53.670;8.676;2022-12-24T09:19:30;18.30;49.70
1650;DHT22;822;53.670;8.676;2022-12-24T09:21:57;18.30;50.20
1650;DHT22;822;53.670;8.676;2022-12-24T09:24:24;18.30;49.60
1650;DHT22;822;53.670;8.676;2022-12-24T09:26:50;18.30;49.50
1650;DHT22;822;53.670;8.676;2022-12-24T09:29:17;18.30;49.30
1650;DHT22;822;53.670;8.676;2022-12-24T09:31:45;18.30;49.40
1650;DHT22;822;53.670;8.676;2022-12-24T09:34:13;18.20;49.30
1650;DHT22;822;53.670;8.676;2022-12-24T09:36:40;18.20;49.40
1650;DHT22;822;53.670;8.676;2022-12-24T09:39:07;18.20;49.50
1650;DHT22;822;53.670;8.676;2022-12-24T09:41:43;18.20;49.60
1650;DHT22;822;53.670;8.676;2022-12-24T09:44:31;18.20;49.70
1650;DHT22;822;53.670;8.676;2022-12-24T09:47:00;18.20;49.70
1650;DHT22;822;53.670;8.676;2022-12-24T09:49:36;18.20;49.60
1650;DHT22;822;53.670;8.676;2022-12-24T09:52:07;18.20;49.70
1650;DHT22;822;53.670;8.676;2022-12-24T09:54:37;18.20;49.80
1650;DHT22;822;53.670;8.676;2022-12-24T09:57:11;18.10;49.70
1650;DHT22;822;53.670;8.676;2022-12-24T09:59:41;18.10;49.80
1650;DHT22;822;53.670;8.676;2022-12-24T10:02:10;18.10;49.60
1650;DHT22;822;53.670;8.676;2022-12-24T10:04:39;18.10;49.60
1650;DHT22;822;53.670;8.676;2022-12-24T10:07:15;18.10;49.60
1650;DHT22;822;53.670;8.676;2022-12-24T10:09:51;18.10;49.60
1650;DHT22;822;53.670;8.676;2022-12-24T10:12:25;18.10;49.50
1650;DHT22;822;53.670;8.676;2022-12-24T10:15:06;18.20;49.50
1650;DHT22;822;53.670;8.676;2022-12-24T10:17:46;18.20;49.50
1650;DHT22;822;53.670;8.676;2022-12-24T10:20:38;18.10;49.50
1650;DHT22;822;53.670;8.676;2022-12-24T10:23:14;18.10;49.50
1650;DHT22;822;53.670;8.676;2022-12-24T10:25:47;18.10;49.40
1650;DHT22;822;53.670;8.676;2022-12-24T10:28:17;18.10;49.40
1650;DHT22;822;53.670;8.676;2022-12-24T10:30:47;18.10;49.50
1650;DHT22;822;53.670;8.676;2022-12-24T10:33:19;18.20;49.70
1650;DHT22;822;53.670;8.676;2022-12-24T10:35:53;18.20;50.10
1650;DHT22;822;53.670;8.676;2022-12-24T10:38:22;18.10;49.80
1650;DHT22;822;53.670;8.676;2022-12-24T10:40:50;18.10;49.30
1650;DHT22;822;53.670;8.676;2022-12-24T10:43:20;18.10;49.50
1650;DHT22;822;53.670;8.676;2022-12-24T10:45:52;18.10;49.60
1650;DHT22;822;53.670;8.676;2022-12-24T10:48:24;18.10;49.60
1650;DHT22;822;53.670;8.676;2022-12-24T10:50:58;18.10;50.00
1650;DHT22;822;53.670;8.676;2022-12-24T10:53:32;18.10;49.50
1650;DHT22;822;53.670;8.676;2022-12-24T10:56:02;18.10;49.50
1650;DHT22;822;53.670;8.676;2022-12-24T10:58:30;18.10;50.00
1650;DHT22;822;53.670;8.676;2022-12-24T11:00:57;18.10;50.20
1650;DHT22;822;53.670;8.676;2022-12-24T11:03:29;18.10;50.20
1650;DHT22;822;53.670;8.676;2022-12-24T11:06:05;18.10;50.10
1650;DHT22;822;53.670;8.676;2022-12-24T11:08:33;18.10;50.00
1650;DHT22;822;53.670;8.676;2022-12-24T11:11:01;18.10;49.80
1650;DHT22;822;53.670;8.676;2022-12-24T11:13:31;18.20;49.80
1650;DHT22;822;53.670;8.676;2022-12-24T11:16:01;18.20;49.80
1650;DHT22;822;53.670;8.676;2022-12-24T11:18:28;18.20;49.70
1650;DHT22;822;53.670;8.676;2022-12-24T11:20:56;18.10;49.70
1650;DHT22;822;53.670;8.676;2022-12-24T11:23:27;18.10;49.70
1650;DHT22;822;53.670;8.676;2022-12-24T11:25:55;18.10;49.80
1650;DHT22;822;53.670;8.676;2022-12-24T11:28:24;18.00;49.80
1650;DHT22;822;53.670;8.676;2022-12-24T11:31:01;18.00;49.90
1650;DHT22;822;53.670;8.676;2022-12-24T11:33:29;18.00;50.00
1650;DHT22;822;53.670;8.676;2022-12-24T11:36:00;18.00;50.30
1650;DHT22;822;53.670;8.676;2022-12-24T11:38:30;17.90;50.20
1650;DHT22;822;53.670;8.676;2022-12-24T11:41:01;17.90;50.30
1650;DHT22;822;53.670;8.676;2022-12-24T11:43:36;17.90;50.40
1650;DHT22;822;53.670;8.676;2022-12-24T11:46:35;17.90;50.40
1650;DHT22;822;53.670;8.676;2022-12-24T11:49:14;17.90;50.40
1650;DHT22;822;53.670;8.676;2022-12-24T11:54:50;18.00;50.50
1650;DHT22;822;53.670;8.676;2022-12-24T11:57:27;18.00;50.70
1650;DHT22;822;53.670;8.676;2022-12-24T11:59:56;18.00;50.70
1650;DHT22;822;53.670;8.676;2022-12-24T12:02:26;18.00;50.70
1650;DHT22;822;53.670;8.676;2022-12-24T12:04:57;18.10;50.80
1650;DHT22;822;53.670;8.676;2022-12-24T12:07:26;18.00;51.00
1650;DHT22;822;53.670;8.676;2022-12-24T12:09:59;18.00;51.00
1650;DHT22;822;53.670;8.676;2022-12-24T12:12:31;18.10;51.10
1650;DHT22;822;53.670;8.676;2022-12-24T12:15:02;18.10;51.20
1650;DHT22;822;53.670;8.676;2022-12-24T12:17:32;18.10;51.50
1650;DHT22;822;53.670;8.676;2022-12-24T12:20:04;18.10;51.50
1650;DHT22;822;53.670;8.676;2022-12-24T12:22:38;18.00;51.50
1650;DHT22;822;53.670;8.676;2022-12-24T12:25:18;18.10;51.60
1650;DHT22;822;53.670;8.676;2022-12-24T12:27:49;18.10;51.70
1650;DHT22;822;53.670;8.676;2022-12-24T12:30:19;18.10;51.80
1650;DHT22;822;53.670;8.676;2022-12-24T12:32:51;18.10;52.50
1650;DHT22;822;53.670;8.676;2022-12-24T12:35:23;18.00;51.90
1650;DHT22;822;53.670;8.676;2022-12-24T12:37:56;18.00;51.90
1650;DHT22;822;53.670;8.676;2022-12-24T12:40:35;18.00;52.00
1650;DHT22;822;53.670;8.676;2022-12-24T12:43:12;18.10;51.90
1650;DHT22;822;53.670;8.676;2022-12-24T12:45:43;18.10;51.90
1650;DHT22;822;53.670;8.676;2022-12-24T12:48:27;18.20;51.70
1650;DHT22;822;53.670;8.676;2022-12-24T12:51:03;18.30;51.60
1650;DHT22;822;53.670;8.676;2022-12-24T12:53:46;18.40;51.50
1650;DHT22;822;53.670;8.676;2022-12-24T12:56:26;18.40;51.30
1650;DHT22;822;53.670;8.676;2022-12-24T12:58:59;18.50;51.30
1650;DHT22;822;53.670;8.676;2022-12-24T13:01:35;18.50;51.10
1650;DHT22;822;53.670;8.676;2022-12-24T13:04:29;18.60;51.20
1650;DHT22;822;53.670;8.676;2022-12-24T13:10:12;18.60;51.40
1650;DHT22;822;53.670;8.676;2022-12-24T13:12:56;18.60;51.40
1650;DHT22;822;53.670;8.676;2022-12-24T13:15:47;18.60;51.50
1650;DHT22;822;53.670;8.676;2022-12-24T13:21:14;18.60;51.70
1650;DHT22;822;53.670;8.676;2022-12-24T13:23:42;18.60;51.80
1650;DHT22;822;53.670;8.676;2022-12-24T13:26:10;18.60;51.70
1650;DHT22;822;53.670;8.676;2022-12-24T13:28:40;18.50;51.70
1650;DHT22;822;53.670;8.676;2022-12-24T13:31:25;18.60;51.70
1650;DHT22;822;53.670;8.676;2022-12-24T13:34:00;18.50;51.50
1650;DHT22;822;53.670;8.676;2022-12-24T13:39:29;18.60;51.80
1650;DHT22;822;53.670;8.676;2022-12-24T13:42:45;18.60;51.60
1650;DHT22;822;53.670;8.676;2022-12-24T13:45:42;18.60;51.60
1650;DHT22;822;53.670;8.676;2022-12-24T13:48:25;18.60;51.60
1650;DHT22;822;53.670;8.676;2022-12-24T13:50:55;18.60;51.60
1650;DHT22;822;53.670;8.676;2022-12-24T13:53:27;18.60;51.70
1650;DHT22;822;53.670;8.676;2022-12-24T13:55:56;18.60;52.00
1650;DHT22;822;53.670;8.676;2022-12-24T13:58:25;18.50;52.00
1650;DHT22;822;53.670;8.676;2022-12-24T14:00:55;18.50;52.20
1650;DHT22;822;53.670;8.676;2022-12-24T14:03:29;18.50;52.20
1650;DHT22;822;53.670;8.676;2022-12-24T14:05:59;18.50;52.40
1650;DHT22;822;53.670;8.676;2022-12-24T14:08:31;18.40;52.20
1650;DHT22;822;53.670;8.676;2022-12-24T14:11:05;18.40;52.40
1650;DHT22;822;53.670;8.676;2022-12-24T14:14:10;18.40;52.40
1650;DHT22;822;53.670;8.676;2022-12-24T14:17:00;18.40;52.60
1650;DHT22;822;53.670;8.676;2022-12-24T14:19:29;18.40;52.70
1650;DHT22;822;53.670;8.676;2022-12-24T14:22:01;18.40;52.80
1650;DHT22;822;53.670;8.676;2022-12-24T14:24:32;18.40;52.80
1650;DHT22;822;53.670;8.676;2022-12-24T14:27:06;18.30;53.00
1650;DHT22;822;53.670;8.676;2022-12-24T14:29:36;18.30;53.20
1650;DHT22;822;53.670;8.676;2022-12-24T14:32:13;18.40;53.80
1650;DHT22;822;53.670;8.676;2022-12-24T14:34:40;18.40;54.00
1650;DHT22;822;53.670;8.676;2022-12-24T14:37:10;18.40;53.80
1650;DHT22;822;53.670;8.676;2022-12-24T14:39:41;18.40;53.50
1650;DHT22;822;53.670;8.676;2022-12-24T14:42:20;18.40;53.30
1650;DHT22;822;53.670;8.676;2022-12-24T14:44:58;18.40;53.20
1650;DHT22;822;53.670;8.676;2022-12-24T14:47:34;18.40;53.00
1650;DHT22;822;53.670;8.676;2022-12-24T14:53:09;18.30;52.90
1650;DHT22;822;53.670;8.676;2022-12-24T14:55:42;18.30;52.70
1650;DHT22;822;53.670;8.676;2022-12-24T14:58:22;18.30;52.60
1650;DHT22;822;53.670;8.676;2022-12-24T15:00:50;18.30;52.40
1650;DHT22;822;53.670;8.676;2022-12-24T15:03:21;18.30;52.50
1650;DHT22;822;53.670;8.676;2022-12-24T15:05:51;18.30;52.40
1650;DHT22;822;53.670;8.676;2022-12-24T15:08:21;18.30;52.30
1650;DHT22;822;53.670;8.676;2022-12-24T15:10:51;18.30;52.20
1650;DHT22;822;53.670;8.676;2022-12-24T15:13:25;18.30;52.20
1650;DHT22;822;53.670;8.676;2022-12-24T15:15:55;18.30;52.20
1650;DHT22;822;53.670;8.676;2022-12-24T15:18:26;18.30;52.10
1650;DHT22;822;53.670;8.676;2022-12-24T15:20:55;18.30;52.10
1650;DHT22;822;53.670;8.676;2022-12-24T15:23:26;18.30;51.90
1650;DHT22;822;53.670;8.676;2022-12-24T15:26:06;18.30;51.90
1650;DHT22;822;53.670;8.676;2022-12-24T15:28:35;18.30;51.80
1650;DHT22;822;53.670;8.676;2022-12-24T15:31:11;18.30;51.80
1650;DHT22;822;53.670;8.676;2022-12-24T15:33:43;18.30;51.70
1650;DHT22;822;53.670;8.676;2022-12-24T15:36:11;18.30;51.70
1650;DHT22;822;53.670;8.676;2022-12-24T15:38:40;18.30;51.70
1650;DHT22;822;53.670;8.676;2022-12-24T15:41:15;18.30;51.60
1650;DHT22;822;53.670;8.676;2022-12-24T15:43:43;18.30;51.70
1650;DHT22;822;53.670;8.676;2022-12-24T15:46:17;18.30;51.60
1650;DHT22;822;53.670;8.676;2022-12-24T15:48:47;18.30;51.70
1650;DHT22;822;53.670;8.676;2022-12-24T15:51:21;18.20;51.60
1650;DHT22;822;53.670;8.676;2022-12-24T15:53:58;18.20;51.60
1650;DHT22;822;53.670;8.676;2022-12-24T15:56:30;18.20;51.60
1650;DHT22;822;53.670;8.676;2022-12-24T15:59:26;18.20;51.60
1650;DHT22;822;53.670;8.676;2022-12-24T16:01:53;18.20;51.70
1650;DHT22;822;53.670;8.676;2022-12-24T16:04:23;18.20;51.70
1650;DHT22;822;53.670;8.676;2022-12-24T16:06:55;18.20;51.80
1650;DHT22;822;53.670;8.676;2022-12-24T16:09:46;18.20;51.70
1650;DHT22;822;53.670;8.676;2022-12-24T16:12:15;18.10;51.60
1650;DHT22;822;53.670;8.676;2022-12-24T16:14:46;18.10;51.70
1650;DHT22;822;53.670;8.676;2022-12-24T16:17:19;18.10;51.70
1650;DHT22;822;53.670;8.676;2022-12-24T16:19:49;18.00;51.70
1650;DHT22;822;53.670;8.676;2022-12-24T16:22:19;18.00;51.80
1650;DHT22;822;53.670;8.676;2022-12-24T16:25:02;18.00;51.80
1650;DHT22;822;53.670;8.676;2022-12-24T16:27:40;17.90;51.80
1650;DHT22;822;53.670;8.676;2022-12-24T16:30:10;17.90;51.80
1650;DHT22;822;53.670;8.676;2022-12-24T16:32:37;17.90;51.90
1650;DHT22;822;53.670;8.676;2022-12-24T16:35:23;17.90;51.90
1650;DHT22;822;53.670;8.676;2022-12-24T16:37:51;17.90;51.90
1650;DHT22;822;53.670;8.676;2022-12-24T16:40:18;17.80;51.80
1650;DHT22;822;53.670;8.676;2022-12-24T16:42:45;17.80;51.90
1650;DHT22;822;53.670;8.676;2022-12-24T16:45:29;17.90;51.80
1650;DHT22;822;53.670;8.676;2022-12-24T16:47:57;17.90;51.70
1650;DHT22;822;53.670;8.676;2022-12-24T16:50:26;17.90;51.60
1650;DHT22;822;53.670;8.676;2022-12-24T16:52:53;17.90;51.50
1650;DHT22;822;53.670;8.676;2022-12-24T16:55:20;17.90;51.50
1650;DHT22;822;53.670;8.676;2022-12-24T16:57:47;17.90;51.40
1650;DHT22;822;53.670;8.676;2022-12-24T17:00:16;17.90;51.40
1650;DHT22;822;53.670;8.676;2022-12-24T17:02:45;17.90;51.40